Czestochowa, Poland
Current Conditions -  °F | °C
As of 2:30 PM on Thursday 18 Dec 2014 (Local Time) from EPKT Reporting Station
Broken Clouds Broken Clouds  
Wind Chill: 39°   Ceiling: 3300
Heat Index: 45°   Visibility: 6mi
Dew Point: 37°   Wind: 12mph
Humidity: 76%   Direction: 230°SW
Pressure: 29.88"   Gusts: NA
Location:  50.81°N, 19.13°E
Report Text: EPKT 181230Z 23010KT 9999 BKN033 07/03 Q1012
Loading
Personal Weather Stations






























Interactive Weather Map New forecast layout! Learn more

10-Day Weather Forecast

Advertisements
Track Severe Weather on mobile